Time;durP1;ratioP1;P1;durP2;ratioP2;P2;SDS_P1;SDS_P2;PMS_P1;PMS_P2;Temp;Humidity;BMP_temperature;BMP_pressure;BME280_temperature;BME280_humidity;BME280_pressure;Samples;Min_cycle;Max_cycle;Signal;HPM_P1;HPM_P2
2021/09/25 00:00:58;;;;;;;;;;;;;;;14.92;66.66;98236.35;1685293;84;20994;-87
2021/09/25 00:03:23;;;;;;;;;;;;;;;14.91;66.72;98228.09;1685092;83;20255;-87
2021/09/25 00:05:49;;;;;;;;;;;;;;;14.93;66.77;98231.92;1718231;82;20252;-88
2021/09/25 00:08:15;;;;;;;;;;;;;;;14.93;66.84;98224.02;1685634;83;20844;-86
2021/09/25 00:10:42;;;;;;;;;;;;;;;14.95;66.92;98224.69;1687946;83;23426;-87
2021/09/25 00:13:08;;;;;;;;;;;;;;;14.93;66.98;98216.11;1699238;83;26426;-87
2021/09/25 00:15:34;;;;;;;;;;;;;;;14.92;67.02;98220.54;1700293;82;24405;-87
2021/09/25 00:18:03;;;;;;;;;;;;;;;14.93;67.09;98214.79;1696644;83;20556;-87
2021/09/25 00:20:36;;;;;;;;;;;;;;;14.94;67.14;98215.14;1702196;83;25739;-87
2021/09/25 00:23:03;;;;;;;;;;;;;;;14.96;67.20;98219.28;1703503;83;21985;-88
2021/09/25 00:25:29;;;;;;;;;;;;;;;14.97;67.25;98220.95;1704214;83;26036;-88
2021/09/25 00:27:55;;;;;;;;;;;;;;;14.96;67.29;98226.35;1711323;82;24396;-88
2021/09/25 00:30:21;;;;;;;;;;;;;;;14.93;67.33;98222.21;1706394;83;20244;-88
2021/09/25 00:32:49;;;;;;;;;;;;;;;14.93;67.39;98217.42;1699864;83;20759;-88
2021/09/25 00:35:17;;;;;;;;;;;;;;;14.91;67.43;98214.92;1700797;83;22164;-88
2021/09/25 00:37:43;;;;;;;;;;;;;;;14.91;67.50;98216.23;1702677;82;26113;-88
2021/09/25 00:40:10;;;;;;;;;;;;;;;14.95;67.55;98219.41;1699321;83;24641;-89
2021/09/25 00:42:36;;;;;;;;;;;;;;;14.93;67.61;98209.52;1702213;83;20255;-88
2021/09/25 00:45:02;;;;;;;;;;;;;;;14.93;67.66;98209.52;1704711;83;20299;-88
2021/09/25 00:47:29;;;;;;;;;;;;;;;14.90;67.72;98214.56;1695387;82;22037;-88
2021/09/25 00:49:56;;;;;;;;;;;;;;;14.90;67.77;98215.05;1712033;83;21069;-88
2021/09/25 00:52:22;;;;;;;;;;;;;;;14.92;67.83;98214.44;1731721;81;24385;-89
2021/09/25 00:54:48;;;;;;;;;;;;;;;14.91;67.89;98212.28;1694069;83;20984;-89
2021/09/25 00:57:14;;;;;;;;;;;;;;;14.92;67.91;98211.80;1694962;83;24820;-88
2021/09/25 00:59:40;;;;;;;;;;;;;;;14.92;67.96;98207.36;1693238;83;21916;-88
2021/09/25 01:02:11;;;;;;;;;;;;;;;14.94;68.01;98207.23;1685418;84;21434;-88
2021/09/25 01:04:40;;;;;;;;;;;;;;;14.94;68.04;98203.28;1687101;84;25283;-88
2021/09/25 01:07:06;;;;;;;;;;;;;;;14.97;68.10;98205.62;1688669;83;20456;-88
2021/09/25 01:09:32;;;;;;;;;;;;;;;14.97;68.14;98204.30;1689942;83;20738;-88
2021/09/25 01:11:58;;;;;;;;;;;;;;;14.99;68.16;98204.53;1689693;83;21939;-88
2021/09/25 01:14:31;;;;;;;;;;;;;;;15.04;68.25;98204.09;1651176;85;26407;-88
2021/09/25 01:17:04;;;;;;;;;;;;;;;15.07;68.30;98219.63;1666146;84;24471;-87
2021/09/25 01:19:33;;;;;;;;;;;;;;;15.10;68.33;98222.48;1682745;84;20341;-88
2021/09/25 01:21:59;;;;;;;;;;;;;;;15.08;68.38;98208.11;1649877;85;24823;-88
2021/09/25 01:24:25;;;;;;;;;;;;;;;15.10;68.41;98203.55;1688853;83;22055;-88
2021/09/25 01:26:51;;;;;;;;;;;;;;;15.12;68.45;98191.52;1688699;83;21138;-88
2021/09/25 01:29:17;;;;;;;;;;;;;;;15.11;68.47;98207.81;1687484;83;20330;-88
2021/09/25 01:31:43;;;;;;;;;;;;;;;15.13;68.49;98207.69;1688848;83;20260;-88
2021/09/25 01:34:09;;;;;;;;;;;;;;;15.10;68.51;98206.66;1689765;83;20245;-88
2021/09/25 01:36:36;;;;;;;;;;;;;;;15.11;68.55;98201.22;1689361;83;21937;-88
2021/09/25 01:39:10;;;;;;;;;;;;;;;15.14;68.61;98204.91;1687806;84;25524;-88
2021/09/25 01:41:36;;;;;;;;;;;;;;;15.17;68.65;98203.30;1687752;83;24493;-88
2021/09/25 01:44:03;;;;;;;;;;;;;;;15.21;68.65;98203.39;1667025;84;20222;-87
2021/09/25 01:46:32;;;;;;;;;;;;;;;15.22;68.67;98205.02;1688951;83;25444;-88
2021/09/25 01:48:58;;;;;;;;;;;;;;;15.22;68.69;98208.17;1689199;83;22052;-88
2021/09/25 01:51:24;;;;;;;;;;;;;;;15.27;68.73;98204.14;1687080;83;26101;-88
2021/09/25 01:53:50;;;;;;;;;;;;;;;15.29;68.78;98198.22;1690481;83;25388;-87
2021/09/25 01:56:17;;;;;;;;;;;;;;;15.34;68.82;98198.62;1689117;84;20238;-88
2021/09/25 01:58:47;;;;;;;;;;;;;;;15.36;68.83;98205.91;1686896;83;24770;-88
2021/09/25 02:01:23;;;;;;;;;;;;;;;15.39;68.85;98205.61;1686802;83;22846;-88
2021/09/25 02:03:49;;;;;;;;;;;;;;;15.41;68.89;98205.48;1685177;83;26061;-88
2021/09/25 02:06:15;;;;;;;;;;;;;;;15.35;68.88;98211.32;1687026;83;24490;-87
2021/09/25 02:08:42;;;;;;;;;;;;;;;15.29;68.89;98210.56;1685736;84;20490;-88
2021/09/25 02:11:08;;;;;;;;;;;;;;;15.24;68.91;98204.89;1686845;84;24763;-87
2021/09/25 02:13:34;;;;;;;;;;;;;;;15.18;68.92;98211.56;1684851;83;21961;-87
2021/09/25 02:16:00;;;;;;;;;;;;;;;15.14;68.94;98216.77;1687433;83;25949;-87
2021/09/25 02:18:27;;;;;;;;;;;;;;;15.13;68.97;98213.79;1686174;83;24614;-87
2021/09/25 02:20:53;;;;;;;;;;;;;;;15.11;69.01;98215.72;1690651;83;20243;-87
2021/09/25 02:23:19;;;;;;;;;;;;;;;15.08;69.04;98221.29;1686048;83;24840;-87
2021/09/25 02:25:45;;;;;;;;;;;;;;;15.06;69.09;98225.37;1686523;83;21985;-87
2021/09/25 02:28:11;;;;;;;;;;;;;;;15.03;69.12;98219.08;1686514;84;26153;-87
2021/09/25 02:30:37;;;;;;;;;;;;;;;15.02;69.17;98220.05;1685257;83;20861;-87
2021/09/25 02:33:08;;;;;;;;;;;;;;;14.99;69.22;98217.70;1685830;84;20280;-87
2021/09/25 02:35:31;;;;;;;;;;;;;;;14.95;69.24;98220.25;1686897;83;25539;-87
2021/09/25 02:37:57;;;;;;;;;;;;;;;14.96;69.29;98221.08;1686020;83;22029;-87
2021/09/25 02:40:24;;;;;;;;;;;;;;;14.92;69.33;98221.02;1686091;84;25979;-87
2021/09/25 02:42:52;;;;;;;;;;;;;;;14.92;69.37;98224.98;1686459;83;24508;-88
2021/09/25 02:45:19;;;;;;;;;;;;;;;14.91;69.42;98224.63;1686548;83;20311;-88
2021/09/25 02:47:50;;;;;;;;;;;;;;;14.93;69.48;98226.16;1686677;83;25528;-87
2021/09/25 02:50:18;;;;;;;;;;;;;;;14.92;69.54;98225.81;1688139;83;21861;-87
2021/09/25 02:52:46;;;;;;;;;;;;;;;14.92;69.59;98228.93;1687315;83;26731;-87
2021/09/25 02:55:13;;;;;;;;;;;;;;;14.92;69.65;98228.93;1687309;83;24544;-87
2021/09/25 02:57:40;;;;;;;;;;;;;;;14.96;69.70;98232.45;1691104;83;20217;-88
2021/09/25 03:00:07;;;;;;;;;;;;;;;14.95;69.75;98228.64;1699580;83;24852;-88
2021/09/25 03:02:33;;;;;;;;;;;;;;;14.95;69.78;98228.16;1699229;83;21983;-88
2021/09/25 03:04:59;;;;;;;;;;;;;;;14.99;69.85;98234.00;1699089;83;21000;-88
2021/09/25 03:07:31;;;;;;;;;;;;;;;15.02;69.89;98235.02;1697808;83;20462;-88
2021/09/25 03:09:57;;;;;;;;;;;;;;;15.02;69.93;98233.22;1701546;83;20478;-88
2021/09/25 03:12:23;;;;;;;;;;;;;;;15.01;69.95;98230.23;1699087;83;24804;-88
2021/09/25 03:14:49;;;;;;;;;;;;;;;15.07;69.99;98233.63;1701406;83;22131;-88
2021/09/25 03:17:15;;;;;;;;;;;;;;;15.06;70.01;98236.40;1698388;83;26066;-88
2021/09/25 03:19:42;;;;;;;;;;;;;;;15.06;70.05;98234.59;1699639;83;24445;-88
2021/09/25 03:22:08;;;;;;;;;;;;;;;15.03;70.05;98231.42;1698933;83;20221;-88
2021/09/25 03:24:34;;;;;;;;;;;;;;;14.99;70.08;98237.95;1697880;83;24960;-88
2021/09/25 03:27:00;;;;;;;;;;;;;;;14.98;70.10;98242.88;1698869;83;22233;-88
2021/09/25 03:29:26;;;;;;;;;;;;;;;15.00;70.17;98236.47;1700527;83;26018;-87
2021/09/25 03:31:52;;;;;;;;;;;;;;;15.00;70.21;98238.30;1700139;82;24430;-88
2021/09/25 03:34:18;;;;;;;;;;;;;;;15.05;70.27;98240.84;1700461;82;20171;-88
2021/09/25 03:36:44;;;;;;;;;;;;;;;15.08;70.30;98243.21;1699688;83;20318;-87
2021/09/25 03:39:10;;;;;;;;;;;;;;;15.11;70.39;98246.03;1702244;83;22042;-87
2021/09/25 03:41:37;;;;;;;;;;;;;;;15.07;70.37;98242.86;1698742;83;20985;-87
2021/09/25 03:44:03;;;;;;;;;;;;;;;15.10;70.40;98243.56;1702428;82;24463;-87
2021/09/25 03:46:29;;;;;;;;;;;;;;;15.15;70.44;98244.80;1664318;84;20800;-87
2021/09/25 03:48:55;;;;;;;;;;;;;;;15.21;70.48;98252.16;1699063;83;25011;-87
2021/09/25 03:51:23;;;;;;;;;;;;;;;15.20;70.48;98245.22;1657978;85;20839;-87
2021/09/25 03:53:49;;;;;;;;;;;;;;;15.20;70.51;98253.13;1723488;81;25775;-87
2021/09/25 03:56:18;;;;;;;;;;;;;;;15.21;70.54;98244.25;1658988;84;25331;-87
2021/09/25 03:58:44;;;;;;;;;;;;;;;15.23;70.57;98252.00;1694007;82;20309;-87
2021/09/25 04:01:12;;;;;;;;;;;;;;;15.27;70.60;98245.49;1673739;84;20343;-87
2021/09/25 04:03:39;;;;;;;;;;;;;;;15.27;70.64;98254.72;1666705;84;20297;-88
2021/09/25 04:06:05;;;;;;;;;;;;;;;15.25;70.68;98258.80;1697618;83;26023;-88
2021/09/25 04:08:31;;;;;;;;;;;;;;;15.29;70.68;98258.03;1661269;84;20914;-87
2021/09/25 04:10:57;;;;;;;;;;;;;;;15.31;70.70;98268.79;1663432;86;20234;-87
2021/09/25 04:13:23;;;;;;;;;;;;;;;15.32;70.73;98253.33;1656666;85;20254;-87
2021/09/25 04:15:50;;;;;;;;;;;;;;;15.31;70.75;98260.05;1651902;84;20317;-88
2021/09/25 04:18:17;;;;;;;;;;;;;;;15.27;70.76;98256.88;1658667;84;26129;-88
2021/09/25 04:20:43;;;;;;;;;;;;;;;15.30;70.78;98259.21;1662347;84;20863;-87
2021/09/25 04:23:09;;;;;;;;;;;;;;;15.28;70.80;98256.36;1699738;84;20493;-88
2021/09/25 04:25:35;;;;;;;;;;;;;;;15.21;70.81;98252.64;1694722;83;24810;-88
2021/09/25 04:28:05;;;;;;;;;;;;;;;15.18;70.82;98253.73;1662439;84;20890;-87
2021/09/25 04:30:33;;;;;;;;;;;;;;;15.16;70.85;98249.11;1690873;83;26043;-87
2021/09/25 04:33:00;;;;;;;;;;;;;;;15.16;70.87;98255.70;1703195;83;24407;-88
2021/09/25 04:35:26;;;;;;;;;;;;;;;15.17;70.94;98249.91;1688748;83;20478;-88
2021/09/25 04:37:52;;;;;;;;;;;;;;;15.17;71.00;98256.02;1666535;84;24817;-88
2021/09/25 04:40:18;;;;;;;;;;;;;;;15.17;71.05;98261.77;1662765;84;20300;-88
2021/09/25 04:42:44;;;;;;;;;;;;;;;15.15;71.08;98265.06;1674079;84;25997;-88
2021/09/25 04:45:12;;;;;;;;;;;;;;;15.19;71.13;98263.80;1671812;84;20344;-87
2021/09/25 04:47:39;;;;;;;;;;;;;;;15.18;71.19;98262.97;1668685;84;20162;-87
2021/09/25 04:50:05;;;;;;;;;;;;;;;15.14;71.22;98265.54;1664161;85;24849;-87
2021/09/25 04:52:31;;;;;;;;;;;;;;;15.13;71.26;98271.78;1657187;86;22017;-87
2021/09/25 04:54:57;;;;;;;;;;;;;;;15.14;71.31;98272.13;1659009;85;26109;-87
2021/09/25 04:57:23;;;;;;;;;;;;;;;15.14;71.40;98270.81;1672090;85;20847;-87
2021/09/25 04:59:49;;;;;;;;;;;;;;;15.14;71.46;98269.50;1656204;85;20851;-87
2021/09/25 05:02:15;;;;;;;;;;;;;;;15.16;71.58;98273.31;1653567;86;20556;-87
2021/09/25 05:04:41;;;;;;;;;;;;;;;15.13;71.61;98273.09;1653687;85;20392;-87
2021/09/25 05:07:07;;;;;;;;;;;;;;;15.15;71.67;98280.39;1650306;85;25998;-87
2021/09/25 05:09:33;;;;;;;;;;;;;;;15.15;71.72;98284.83;1663773;85;20308;-87
2021/09/25 05:11:59;;;;;;;;;;;;;;;15.16;71.76;98283.86;1646229;85;20416;-87
2021/09/25 05:14:25;;;;;;;;;;;;;;;15.16;71.85;98280.74;1654120;86;24770;-87
2021/09/25 05:16:51;;;;;;;;;;;;;;;15.20;71.95;98278.17;1657908;85;20805;-87
2021/09/25 05:19:23;;;;;;;;;;;;;;;15.25;72.00;98286.97;1678986;84;25998;-87
2021/09/25 05:21:49;;;;;;;;;;;;;;;15.29;72.07;98285.71;1682264;84;24642;-87
2021/09/25 05:24:25;;;;;;;;;;;;;;;15.29;72.15;98285.71;1678682;84;20750;-87
2021/09/25 05:26:51;;;;;;;;;;;;;;;15.31;72.22;98284.61;1668507;84;24822;-87
2021/09/25 05:29:17;;;;;;;;;;;;;;;15.29;72.28;98291.82;1645761;86;21884;-87
2021/09/25 05:31:44;;;;;;;;;;;;;;;15.34;72.34;98296.19;1678132;84;25949;-87
2021/09/25 05:34:10;;;;;;;;;;;;;;;15.36;72.42;98296.05;1672191;84;24532;-88
2021/09/25 05:36:36;;;;;;;;;;;;;;;15.37;72.47;98293.28;1687405;84;20482;-87
2021/09/25 05:39:05;;;;;;;;;;;;;;;15.36;72.51;98298.20;1678625;84;24739;-87
2021/09/25 05:41:32;;;;;;;;;;;;;;;15.37;72.55;98298.56;1685697;83;22072;-87
2021/09/25 05:43:59;;;;;;;;;;;;;;;15.40;72.61;98300.06;1683553;83;25672;-87
2021/09/25 05:46:25;;;;;;;;;;;;;;;15.38;72.66;98302.83;1679260;85;24485;-87
2021/09/25 05:48:52;;;;;;;;;;;;;;;15.41;72.73;98302.57;1671766;85;20278;-87
2021/09/25 05:51:19;;;;;;;;;;;;;;;15.44;72.79;98303.59;1668280;84;24917;-87
2021/09/25 05:53:46;;;;;;;;;;;;;;;15.52;72.85;98306.05;1681742;83;23562;-87
2021/09/25 05:56:15;;;;;;;;;;;;;;;15.56;72.90;98306.11;1670270;84;26027;-87
2021/09/25 05:58:41;;;;;;;;;;;;;;;15.54;72.97;98305.44;1687821;83;24458;-87
2021/09/25 06:01:08;;;;;;;;;;;;;;;15.56;73.03;98305.62;1663099;84;20240;-87
2021/09/25 06:03:34;;;;;;;;;;;;;;;15.58;73.07;98306.33;1665779;84;24877;-86
2021/09/25 06:06:02;;;;;;;;;;;;;;;15.59;73.13;98308.48;1675088;84;22500;-86
2021/09/25 06:08:28;;;;;;;;;;;;;;;15.57;73.18;98309.94;1666825;84;26116;-87
2021/09/25 06:10:54;;;;;;;;;;;;;;;15.61;73.24;98309.16;1660415;84;24452;-88
2021/09/25 06:13:20;;;;;;;;;;;;;;;15.62;73.29;98313.46;1669036;84;20233;-88
2021/09/25 07:14:26;;;;;;;;;;;;;;;15.30;75.46;98325.13;1703308;82;20270;-85
2021/09/25 07:16:53;;;;;;;;;;;;;;;15.40;75.61;98335.67;1682132;83;21867;-85
2021/09/25 07:32:35;;;;;;;;;;;;;;;16.40;76.38;98329.41;1863063;75;20212;-83
2021/09/25 07:35:02;;;;;;;;;;;;;;;16.50;76.44;98333.67;1833987;77;21949;-84
2021/09/25 07:37:28;;;;;;;;;;;;;;;16.58;76.45;98335.59;1833184;77;26030;-86
2021/09/25 07:39:54;;;;;;;;;;;;;;;16.65;76.48;98333.55;1834876;77;24383;-84
2021/09/25 07:42:24;;;;;;;;;;;;;;;16.70;76.47;98334.42;1834931;77;20516;-86
2021/09/25 07:44:52;;;;;;;;;;;;;;;16.73;76.46;98338.94;1832811;77;24176;-86
2021/09/25 07:47:18;;;;;;;;;;;;;;;16.74;76.40;98337.13;1829950;77;22174;-83
2021/09/25 07:49:44;;;;;;;;;;;;;;;16.77;76.40;98333.34;1835170;77;25995;-85
2021/09/25 07:52:10;;;;;;;;;;;;;;;16.82;76.38;98336.37;1830339;77;24395;-84
2021/09/25 07:54:36;;;;;;;;;;;;;;;16.81;76.37;98335.53;1833366;77;20291;-84
2021/09/25 07:57:02;;;;;;;;;;;;;;;16.82;76.33;98337.69;1831520;77;24292;-83
2021/09/25 07:59:28;;;;;;;;;;;;;;;16.87;76.33;98340.72;1832891;77;22040;-84
2021/09/25 08:01:57;;;;;;;;;;;;;;;16.87;76.33;98340.23;1829586;77;21368;-83
2021/09/25 08:04:23;;;;;;;;;;;;;;;16.91;76.32;98346.07;1835664;77;24491;-84
2021/09/25 08:06:49;;;;;;;;;;;;;;;17.01;76.35;98350.31;1831405;77;20142;-85
2021/09/25 08:09:15;;;;;;;;;;;;;;;17.09;76.40;98346.91;1832574;77;20213;-86
2021/09/25 08:11:41;;;;;;;;;;;;;;;17.10;76.35;98344.61;1833899;77;20904;-84
2021/09/25 08:14:07;;;;;;;;;;;;;;;17.16;76.35;98344.01;1776194;80;21007;-84
2021/09/25 08:16:33;;;;;;;;;;;;;;;17.23;76.33;98344.24;1768052;79;20240;-87
2021/09/25 08:19:00;;;;;;;;;;;;;;;17.30;76.36;98349.25;1772116;80;20160;-84
2021/09/25 08:21:26;;;;;;;;;;;;;;;17.38;76.37;98356.78;1793048;79;24397;-87
2021/09/25 08:23:52;;;;;;;;;;;;;;;17.45;76.38;98355.69;1756262;80;22160;-84
2021/09/25 08:26:20;;;;;;;;;;;;;;;17.50;76.36;98365.33;1796337;79;26077;-84
2021/09/25 08:28:46;;;;;;;;;;;;;;;17.57;76.36;98357.09;1796792;79;24612;-86
2021/09/25 08:31:13;;;;;;;;;;;;;;;17.65;76.36;98357.20;1763162;79;20474;-88
2021/09/25 08:33:39;;;;;;;;;;;;;;;17.73;76.34;98349.31;1797437;79;24380;-88
2021/09/25 08:36:08;;;;;;;;;;;;;;;17.84;76.37;98357.00;1794936;79;22061;-85
2021/09/25 08:38:34;;;;;;;;;;;;;;;17.89;76.34;98354.72;1797590;79;26048;-86
2021/09/25 08:41:00;;;;;;;;;;;;;;;17.95;76.32;98356.75;1790473;79;24387;-88
2021/09/25 08:43:27;;;;;;;;;;;;;;;18.02;76.35;98353.48;1793245;79;20175;-86
2021/09/25 08:45:57;;;;;;;;;;;;;;;18.08;76.33;98357.67;1798099;79;25186;-85
2021/09/25 08:48:23;;;;;;;;;;;;;;;18.15;76.31;98355.23;1794357;79;21950;-85
2021/09/25 08:50:49;;;;;;;;;;;;;;;18.20;76.28;98351.62;1800173;79;21039;-86
2021/09/25 08:53:15;;;;;;;;;;;;;;;18.23;76.24;98348.65;1790686;79;20943;-88
2021/09/25 08:55:41;;;;;;;;;;;;;;;18.28;76.19;98352.98;1793041;79;20477;-84
2021/09/25 08:58:09;;;;;;;;;;;;;;;18.30;76.10;98354.98;1791468;79;24287;-85
2021/09/25 09:00:46;;;;;;;;;;;;;;;18.34;76.03;98363.78;1791218;79;22715;-85
2021/09/25 09:03:19;;;;;;;;;;;;;;;18.38;76.01;98360.34;1795901;79;25942;-85
2021/09/25 09:05:47;;;;;;;;;;;;;;;18.41;75.95;98361.34;1793408;79;25280;-88
2021/09/25 09:08:13;;;;;;;;;;;;;;;18.42;75.85;98364.33;1793567;79;20212;-85
2021/09/25 09:10:39;;;;;;;;;;;;;;;18.44;75.74;98364.19;1791981;79;24349;-87
2021/09/25 09:13:06;;;;;;;;;;;;;;;18.45;75.69;98367.98;1796127;78;21946;-87
2021/09/25 09:15:33;;;;;;;;;;;;;;;18.49;75.61;98374.64;1794206;79;26030;-86
2021/09/25 09:18:01;;;;;;;;;;;;;;;18.49;75.56;98370.67;1792918;79;25112;-86
2021/09/25 09:20:28;;;;;;;;;;;;;;;18.51;75.48;98370.00;1792382;79;20448;-86
2021/09/25 09:23:16;;;;;;;;;;;;;;;18.52;75.42;98370.34;1793527;79;24336;-86
2021/09/25 09:25:42;;;;;;;;;;;;;;;18.51;75.35;98360.72;1793650;79;21983;-87
2021/09/25 09:28:15;;;;;;;;;;;;;;;18.53;75.25;98368.52;1794143;79;20972;-87
2021/09/25 09:30:46;;;;;;;;;;;;;;;18.56;75.24;98366.41;1791078;79;24448;-86
2021/09/25 09:33:14;;;;;;;;;;;;;;;18.65;75.21;98368.13;1763738;80;20502;-86
2021/09/25 09:35:40;;;;;;;;;;;;;;;18.73;75.23;98368.14;1753500;80;23602;-86
2021/09/25 09:38:05;;;;;;;;;;;;;;;18.78;75.22;98371.63;1746598;80;20882;-86
2021/09/25 09:40:31;;;;;;;;;;;;;;;18.83;75.20;98375.13;1797000;77;20914;-86
2021/09/25 09:42:58;;;;;;;;;;;;;;;18.81;75.15;98379.28;1807986;77;20888;-87
2021/09/25 09:45:26;;;;;;;;;;;;;;;18.84;75.07;98380.28;1796071;77;20500;-86
2021/09/25 09:47:52;;;;;;;;;;;;;;;18.85;75.03;98379.29;1786691;77;23832;-86
2021/09/25 09:50:19;;;;;;;;;;;;;;;18.87;74.96;98379.14;1788355;77;22045;-88
2021/09/25 09:52:46;;;;;;;;;;;;;;;18.90;74.94;98378.80;1768909;78;26780;-88
2021/09/25 09:55:16;;;;;;;;;;;;;;;18.94;74.86;98381.46;1770804;78;24085;-89
2021/09/25 09:57:42;;;;;;;;;;;;;;;18.97;74.80;98382.48;1768632;78;20601;-86
2021/09/25 10:00:10;;;;;;;;;;;;;;;19.01;74.74;98378.51;1775571;78;24443;-85
2021/09/25 10:02:39;;;;;;;;;;;;;;;19.05;74.68;98378.52;1766853;78;22989;-87
2021/09/25 10:05:05;;;;;;;;;;;;;;;19.15;74.70;98380.03;1737468;79;21031;-86
2021/09/25 10:07:37;;;;;;;;;;;;;;;19.20;74.65;98383.55;1744783;79;24501;-86
2021/09/25 10:10:03;;;;;;;;;;;;;;;19.23;74.56;98379.23;1745021;79;20580;-88
2021/09/25 10:12:29;;;;;;;;;;;;;;;19.31;74.52;98379.75;1734760;79;24431;-89
2021/09/25 10:14:55;;;;;;;;;;;;;;;19.40;74.51;98370.30;1711440;81;20870;-87
2021/09/25 10:17:21;;;;;;;;;;;;;;;19.46;74.44;98373.66;1722786;81;20919;-86
2021/09/25 10:19:48;;;;;;;;;;;;;;;19.52;74.35;98367.70;1718644;81;24409;-88
2021/09/25 10:22:16;;;;;;;;;;;;;;;19.62;74.30;98366.20;1701902;81;20331;-88
2021/09/25 10:24:46;;;;;;;;;;;;;;;19.68;74.24;98368.69;1701985;81;24964;-88
2021/09/25 10:27:14;;;;;;;;;;;;;;;19.74;74.17;98365.38;1718253;81;22074;-86
2021/09/25 10:32:29;;;;;;;;;;;;;;;19.82;74.01;98366.19;1651515;85;24523;-86
2021/09/25 10:35:03;;;;;;;;;;;;;;;19.95;73.93;98361.70;1612893;87;20258;-87
2021/09/25 10:37:40;;;;;;;;;;;;;;;20.05;73.87;98365.01;1626701;87;24348;-88
2021/09/25 10:40:14;;;;;;;;;;;;;;;20.10;73.70;98358.69;1622232;87;22210;-89
2021/09/25 10:42:41;;;;;;;;;;;;;;;20.14;73.49;98356.02;1646076;85;26621;-88
2021/09/25 10:45:09;;;;;;;;;;;;;;;20.17;73.35;98355.70;1641661;85;25130;-89
2021/09/25 10:47:36;;;;;;;;;;;;;;;20.20;73.12;98352.69;1644245;85;20178;-86
2021/09/25 10:50:14;;;;;;;;;;;;;;;20.22;72.94;98353.85;1644153;85;24364;-88
2021/09/25 10:52:51;;;;;;;;;;;;;;;20.24;72.76;98350.01;1643977;85;21974;-87
2021/09/25 10:58:12;;;;;;;;;;;;;;;20.31;72.43;98366.11;1632386;85;24469;-86
2021/09/25 11:00:56;;;;;;;;;;;;;;;20.24;72.13;98371.27;1642164;84;20305;-88
2021/09/25 11:03:48;;;;;;;;;;;;;;;20.26;71.95;98371.11;1645122;85;24317;-88
2021/09/25 11:06:28;;;;;;;;;;;;;;;20.35;71.81;98370.94;1647683;84;22155;-87
2021/09/25 11:08:57;;;;;;;;;;;;;;;20.42;71.61;98369.77;1641382;85;26043;-87
2021/09/25 11:11:37;;;;;;;;;;;;;;;20.48;71.42;98359.78;1645512;85;25096;-86
2021/09/25 11:14:05;;;;;;;;;;;;;;;20.59;71.25;98361.23;1644957;85;20215;-86
2021/09/25 11:16:43;;;;;;;;;;;;;;;20.52;70.88;98362.42;1645165;85;24307;-88
2021/09/25 11:19:28;;;;;;;;;;;;;;;20.39;70.47;98358.99;1642802;85;22044;-86
2021/09/25 11:22:10;;;;;;;;;;;;;;;20.25;70.08;98357.48;1641872;85;26469;-87
2021/09/25 11:24:38;;;;;;;;;;;;;;;20.11;69.82;98367.49;1643227;85;24571;-88
2021/09/25 11:27:09;;;;;;;;;;;;;;;19.94;69.55;98365.36;1643135;85;20366;-85
2021/09/25 11:29:35;;;;;;;;;;;;;;;19.95;69.44;98372.33;1638601;85;24386;-85
2021/09/25 11:32:03;;;;;;;;;;;;;;;20.03;69.45;98370.48;1627918;85;21985;-85
2021/09/25 11:34:30;;;;;;;;;;;;;;;20.18;69.50;98365.33;1625069;87;25897;-85
2021/09/25 11:36:58;;;;;;;;;;;;;;;20.22;69.45;98365.81;1640537;86;24411;-85
2021/09/25 11:39:26;;;;;;;;;;;;;;;20.14;69.25;98363.98;1617074;86;20283;-87
2021/09/25 11:42:11;;;;;;;;;;;;;;;20.04;69.04;98358.86;1626135;86;24681;-88
2021/09/25 11:44:42;;;;;;;;;;;;;;;19.96;68.87;98365.53;1638987;86;21953;-84
2021/09/25 11:47:08;;;;;;;;;;;;;;;19.92;68.74;98359.37;1632902;86;27281;-86
2021/09/25 11:49:35;;;;;;;;;;;;;;;19.89;68.60;98362.37;1635159;86;20921;-86
2021/09/25 11:52:01;;;;;;;;;;;;;;;19.88;68.46;98362.03;1632484;86;20189;-85
2021/09/25 11:54:27;;;;;;;;;;;;;;;19.91;68.41;98364.38;1630214;86;24515;-88
2021/09/25 11:56:59;;;;;;;;;;;;;;;19.95;68.37;98368.34;1633231;86;22138;-86
2021/09/25 11:59:26;;;;;;;;;;;;;;;19.96;68.30;98359.39;1636853;86;26070;-88
2021/09/25 12:01:53;;;;;;;;;;;;;;;19.99;68.25;98363.02;1646174;86;25270;-84
2021/09/25 12:04:18;;;;;;;;;;;;;;;20.04;68.24;98355.37;1629857;86;20822;-84
2021/09/25 12:06:51;;;;;;;;;;;;;;;20.09;68.20;98351.70;1631755;86;24632;-86
2021/09/25 12:09:18;;;;;;;;;;;;;;;20.09;68.08;98355.70;1634187;86;21955;-84
2021/09/25 12:11:44;;;;;;;;;;;;;;;20.16;67.94;98346.06;1636226;86;25986;-88
2021/09/25 12:14:10;;;;;;;;;;;;;;;20.34;68.04;98345.89;1639518;86;21001;-88
2021/09/25 12:16:36;;;;;;;;;;;;;;;20.42;68.05;98349.33;1637019;86;20812;-85
2021/09/25 12:19:02;;;;;;;;;;;;;;;20.45;68.02;98346.84;1628318;86;21066;-83
2021/09/25 12:21:28;;;;;;;;;;;;;;;20.41;67.89;98346.34;1634812;86;20272;-86
2021/09/25 12:23:59;;;;;;;;;;;;;;;20.39;67.70;98344.38;1635614;86;25984;-87
2021/09/25 12:26:26;;;;;;;;;;;;;;;20.40;67.59;98346.00;1630344;86;24424;-87
2021/09/25 12:28:56;;;;;;;;;;;;;;;20.42;67.48;98344.52;1610763;86;20286;-85
2021/09/25 12:31:27;;;;;;;;;;;;;;;20.47;67.39;98348.81;1636644;86;24625;-86
2021/09/25 12:33:56;;;;;;;;;;;;;;;20.57;67.32;98347.28;1645602;86;22078;-86
2021/09/25 12:36:31;;;;;;;;;;;;;;;20.58;67.19;98355.59;1644787;86;26154;-85
2021/09/25 12:39:02;;;;;;;;;;;;;;;20.59;67.05;98346.62;1653961;86;24552;-84
2021/09/25 12:41:28;;;;;;;;;;;;;;;20.70;66.96;98346.23;1646188;85;20510;-84
2021/09/25 12:43:58;;;;;;;;;;;;;;;20.78;66.85;98347.02;1647207;86;24566;-86
2021/09/25 12:46:43;;;;;;;;;;;;;;;20.84;66.76;98345.49;1649879;85;21975;-86
2021/09/25 12:49:14;;;;;;;;;;;;;;;20.94;66.71;98346.63;1646624;85;26020;-89
2021/09/25 12:51:42;;;;;;;;;;;;;;;21.07;66.68;98342.38;1652595;86;24434;-85
2021/09/25 12:54:14;;;;;;;;;;;;;;;21.27;66.72;98335.62;1648657;86;20257;-84
2021/09/25 12:56:39;;;;;;;;;;;;;;;21.42;66.67;98337.03;1650796;86;24543;-84
2021/09/25 12:59:07;;;;;;;;;;;;;;;21.55;66.62;98333.75;1643860;86;21825;-88
2021/09/25 13:01:34;;;;;;;;;;;;;;;21.63;66.46;98331.86;1648674;86;26173;-84
2021/09/25 13:04:16;;;;;;;;;;;;;;;21.65;66.17;98338.35;1649714;86;24545;-85
2021/09/25 13:06:43;;;;;;;;;;;;;;;21.65;65.88;98328.53;1654470;86;20231;-85
2021/09/25 13:09:10;;;;;;;;;;;;;;;21.75;65.67;98329.60;1648261;86;24580;-85
2021/09/25 13:11:36;;;;;;;;;;;;;;;21.81;65.47;98327.55;1656601;85;22472;-88
2021/09/25 13:14:06;;;;;;;;;;;;;;;21.84;65.12;98329.02;1644370;84;26751;-88
2021/09/25 13:16:32;;;;;;;;;;;;;;;21.79;64.76;98330.89;1646609;86;24029;-84
2021/09/25 13:18:59;;;;;;;;;;;;;;;21.74;64.43;98325.78;1644676;86;20489;-87
2021/09/25 13:21:26;;;;;;;;;;;;;;;21.61;64.09;98325.05;1655790;86;24604;-88
2021/09/25 13:24:02;;;;;;;;;;;;;;;21.55;63.85;98323.09;1654293;85;22078;-87
2021/09/25 13:26:29;;;;;;;;;;;;;;;21.61;63.74;98331.20;1652083;86;26774;-84
2021/09/25 13:28:55;;;;;;;;;;;;;;;21.69;63.57;98323.66;1656940;85;24479;-88
2021/09/25 13:31:21;;;;;;;;;;;;;;;21.77;63.40;98324.07;1642923;85;20332;-88
2021/09/25 13:33:47;;;;;;;;;;;;;;;21.84;63.16;98330.34;1593590;87;25357;-88
2021/09/25 13:36:17;;;;;;;;;;;;;;;21.92;62.97;98332.45;1629470;86;22735;-87
2021/09/25 13:38:43;;;;;;;;;;;;;;;22.03;62.84;98329.37;1601735;87;26176;-87
2021/09/25 13:41:09;;;;;;;;;;;;;;;22.11;62.68;98323.11;1631987;86;24432;-86
2021/09/25 13:43:35;;;;;;;;;;;;;;;22.21;62.62;98319.66;1626774;87;20196;-85
2021/09/25 13:46:02;;;;;;;;;;;;;;;22.23;62.42;98321.66;1625323;86;24599;-86
2021/09/25 13:48:28;;;;;;;;;;;;;;;22.24;62.29;98322.48;1629538;86;21980;-87
2021/09/25 13:50:54;;;;;;;;;;;;;;;22.18;62.09;98331.20;1602046;87;21077;-85
2021/09/25 13:53:21;;;;;;;;;;;;;;;22.08;61.83;98326.98;1601609;88;20266;-85
2021/09/25 13:55:47;;;;;;;;;;;;;;;21.97;61.54;98323.43;1627797;86;20586;-85
2021/09/25 13:58:13;;;;;;;;;;;;;;;21.91;61.31;98326.78;1628644;86;20794;-85
2021/09/25 14:00:39;;;;;;;;;;;;;;;21.84;61.15;98325.84;1623004;86;22063;-87
2021/09/25 14:03:05;;;;;;;;;;;;;;;21.81;61.04;98324.05;1629425;86;25991;-88
2021/09/25 14:05:31;;;;;;;;;;;;;;;21.76;60.81;98333.93;1624188;85;24445;-87
2021/09/25 14:07:57;;;;;;;;;;;;;;;21.74;60.61;98329.77;1628897;86;20225;-86